Time;durP1;ratioP1;P1;durP2;ratioP2;P2;SDS_P1;SDS_P2;PMS_P1;PMS_P2;Temp;Humidity;BMP_temperature;BMP_pressure;BME280_temperature;BME280_humidity;BME280_pressure;Samples;Min_cycle;Max_cycle;Signal;HPM_P1;HPM_P2
2022/06/23 00:02:19;;;;;;;21.45;19.13;;;26.00;15.30;;;;;;5153435;27;20026;-48
2022/06/23 00:04:45;;;;;;;;;;;26.00;14.20;;;;;;5154855;27;20126;-46
2022/06/23 00:07:24;;;;;;;24.98;20.33;;;26.00;15.10;;;;;;5148298;27;19914;-46
2022/06/23 00:09:55;;;;;;;24.80;20.80;;;26.10;14.20;;;;;;5140852;27;20563;-46
2022/06/23 00:12:26;;;;;;;19.67;17.65;;;25.90;14.60;;;;;;5142299;27;20042;-47
2022/06/23 00:15:10;;;;;;;21.15;17.85;;;25.90;14.90;;;;;;5154693;27;20537;-46
2022/06/23 00:17:42;;;;;;;20.25;17.98;;;25.90;14.60;;;;;;5151224;27;20487;-53
2022/06/23 00:20:16;;;;;;;21.50;17.58;;;25.90;13.80;;;;;;5151167;27;20031;-51
2022/06/23 00:22:45;;;;;;;19.30;17.05;;;25.80;14.30;;;;;;5150725;27;20542;-50
2022/06/23 00:25:26;;;;;;;17.13;15.18;;;25.80;14.10;;;;;;5148036;27;20034;-51
2022/06/23 00:27:53;;;;;;;19.60;15.95;;;26.00;14.10;;;;;;5152969;27;20042;-52
2022/06/23 00:30:28;;;;;;;18.25;16.52;;;25.80;13.30;;;;;;5147717;27;20033;-51
2022/06/23 00:32:53;;;;;;;17.38;15.45;;;25.70;13.30;;;;;;5154337;27;20033;-52
2022/06/23 00:35:19;;;;;;;18.83;14.40;;;25.70;13.10;;;;;;5150497;27;20384;-53
2022/06/23 00:37:51;;;;;;;17.65;14.27;;;25.80;13.00;;;;;;5151549;27;20104;-52
2022/06/23 00:40:21;;;;;;;14.82;13.00;;;25.90;12.80;;;;;;5144554;27;20075;-49
2022/06/23 00:42:57;;;;;;;18.85;14.98;;;25.70;12.50;;;;;;5153142;27;20068;-51
2022/06/23 00:45:29;;;;;;;16.00;13.77;;;25.80;11.90;;;;;;5153136;27;20075;-51
2022/06/23 00:48:23;;;;;;;17.45;13.77;;;25.80;11.20;;;;;;5150636;27;20534;-51
2022/06/23 00:51:21;;;;;;;13.90;12.63;;;25.70;11.00;;;;;;5143194;27;20027;-46
2022/06/23 00:53:49;;;;;;;14.45;12.90;;;25.70;11.50;;;;;;5136202;27;20058;-53
2022/06/23 00:56:17;;;;;;;14.85;12.77;;;25.60;10.90;;;;;;5138011;27;20029;-48
2022/06/23 00:58:59;;;;;;;15.32;13.23;;;25.70;10.60;;;;;;5154579;27;20031;-49
2022/06/23 01:01:37;;;;;;;17.65;13.50;;;25.70;10.30;;;;;;5144784;27;20105;-46
2022/06/23 01:04:30;;;;;;;18.30;14.18;;;25.60;10.20;;;;;;5152440;27;20198;-47
2022/06/23 01:07:33;;;;;;;14.10;12.40;;;25.60;10.60;;;;;;5145866;27;20559;-49
2022/06/23 01:10:14;;;;;;;14.73;12.90;;;25.50;10.40;;;;;;5134980;27;20102;-47
2022/06/23 01:13:02;;;;;;;15.68;12.70;;;25.40;10.60;;;;;;5148524;27;20034;-49
2022/06/23 01:15:36;;;;;;;14.00;11.88;;;25.50;10.30;;;;;;5129081;27;20030;-50
2022/06/23 01:18:32;;;;;;;15.85;12.57;;;25.50;10.10;;;;;;5149381;27;20082;-49
2022/06/23 01:21:12;;;;;;;20.73;13.57;;;25.60;10.20;;;;;;5149536;27;20072;-46
2022/06/23 01:23:53;;;;;;;13.30;11.57;;;25.50;10.10;;;;;;5139086;27;20043;-47
2022/06/23 01:26:28;;;;;;;15.23;12.30;;;25.50;10.30;;;;;;5149768;27;20023;-44
2022/06/23 01:29:15;;;;;;;20.30;12.75;;;25.50;9.50;;;;;;5151849;27;20108;-46
2022/06/23 01:31:47;;;;;;;14.82;12.77;;;25.40;9.10;;;;;;5148014;27;20045;-45
2022/06/23 01:34:36;;;;;;;11.98;10.77;;;25.40;9.20;;;;;;5136598;27;20030;-47
2022/06/23 01:37:13;;;;;;;16.30;13.20;;;25.50;9.70;;;;;;5149139;27;20479;-46
2022/06/23 01:39:46;;;;;;;14.18;12.68;;;25.40;9.50;;;;;;5149243;27;20035;-45
2022/06/23 01:42:24;;;;;;;16.95;12.10;;;25.50;9.30;;;;;;5143193;27;20030;-49
2022/06/23 01:45:12;;;;;;;15.05;12.35;;;25.40;9.40;;;;;;5145645;27;20027;-49
2022/06/23 01:48:11;;;;;;;12.70;11.38;;;25.40;9.60;;;;;;5150037;27;20436;-46
2022/06/23 01:50:39;;;;;;;15.93;12.73;;;25.40;9.90;;;;;;5148363;27;20039;-46
2022/06/23 01:53:21;;;;;;;15.02;11.50;;;25.40;9.90;;;;;;5145894;27;20023;-45
2022/06/23 01:56:08;;;;;;;15.70;12.32;;;25.30;10.10;;;;;;5139945;27;20039;-46
2022/06/23 01:58:51;;;;;;;16.20;11.20;;;25.40;10.40;;;;;;5146354;27;20387;-46
2022/06/23 02:01:46;;;;;;;16.58;11.52;;;25.40;10.60;;;;;;5151293;27;20042;-45
2022/06/23 02:04:41;;;;;;;15.45;10.70;;;25.20;10.90;;;;;;5155381;27;20031;-45
2022/06/23 02:07:23;;;;;;;15.05;12.15;;;25.30;11.20;;;;;;5142497;27;20099;-46
2022/06/23 02:09:52;;;;;;;14.07;11.32;;;25.30;11.10;;;;;;5154359;27;20050;-46
2022/06/23 02:12:33;;;;;;;13.80;11.88;;;25.30;10.90;;;;;;5155177;27;20034;-46
2022/06/23 02:15:06;;;;;;;15.55;11.48;;;25.20;11.60;;;;;;5148001;27;20171;-46
2022/06/23 02:17:43;;;;;;;15.10;11.38;;;25.20;11.30;;;;;;5153065;27;20050;-46
2022/06/23 02:20:38;;;;;;;12.95;11.10;;;25.20;11.40;;;;;;5155690;27;20057;-46
2022/06/23 02:23:12;;;;;;;14.07;10.63;;;25.40;11.50;;;;;;5154559;27;20516;-46
2022/06/23 02:25:48;;;;;;;14.02;12.13;;;25.30;10.30;;;;;;5141969;27;20039;-46
2022/06/23 02:28:28;;;;;;;13.25;11.40;;;25.20;10.60;;;;;;5142649;27;20356;-46
2022/06/23 02:31:06;;;;;;;13.65;11.13;;;25.20;10.50;;;;;;5154419;27;20357;-46
2022/06/23 02:33:41;;;;;;;15.38;11.90;;;25.20;10.60;;;;;;5152007;27;20098;-46
2022/06/23 02:36:28;;;;;;;12.75;11.25;;;25.30;10.30;;;;;;5151700;27;20030;-47
2022/06/23 02:39:00;;;;;;;12.55;11.35;;;25.10;10.40;;;;;;5153165;27;20448;-46
2022/06/23 02:41:35;;;;;;;12.57;11.27;;;25.20;10.90;;;;;;5137123;27;20038;-47
2022/06/23 02:44:19;;;;;;;14.85;11.30;;;25.20;10.30;;;;;;5154498;27;20035;-46
2022/06/23 02:47:01;;;;;;;14.27;11.55;;;25.10;10.10;;;;;;5152778;27;20093;-48
2022/06/23 02:49:41;;;;;;;12.57;11.32;;;25.30;9.70;;;;;;5146732;27;20038;-49
2022/06/23 02:52:10;;;;;;;13.30;11.77;;;25.20;9.70;;;;;;5153536;27;20354;-51
2022/06/23 02:54:50;;;;;;;13.73;11.80;;;25.40;9.80;;;;;;5153796;27;20039;-46
2022/06/23 02:57:38;;;;;;;16.80;13.65;;;25.20;9.70;;;;;;5152364;27;20027;-50
2022/06/23 03:00:13;;;;;;;13.27;11.93;;;25.10;9.70;;;;;;5153948;27;20022;-47
2022/06/23 03:02:51;;;;;;;15.95;12.23;;;25.20;9.70;;;;;;5152397;27;20027;-49
2022/06/23 03:05:32;;;;;;;15.63;12.57;;;25.00;9.80;;;;;;5151832;27;20038;-49
2022/06/23 03:08:06;;;;;;;16.60;11.95;;;24.90;10.10;;;;;;5149754;27;20033;-48
2022/06/23 03:10:44;;;;;;;14.32;11.68;;;25.00;10.00;;;;;;5154926;27;20102;-50
2022/06/23 03:13:26;;;;;;;12.68;11.27;;;25.00;10.10;;;;;;5141904;27;20039;-49
2022/06/23 03:16:01;;;;;;;15.15;11.63;;;25.00;10.00;;;;;;5151476;27;20026;-49
2022/06/23 03:18:30;;;;;;;15.80;11.85;;;25.00;9.80;;;;;;5155380;27;20019;-48
2022/06/23 03:20:59;;;;;;;12.18;11.00;;;25.00;9.30;;;;;;5148441;27;20043;-46
2022/06/23 03:23:53;;;;;;;14.02;11.77;;;24.90;10.00;;;;;;5154955;27;20039;-46
2022/06/23 03:26:54;;;;;;;13.32;11.38;;;24.90;10.20;;;;;;5151582;27;20023;-46
2022/06/23 03:29:26;;;;;;;13.85;11.77;;;24.80;10.10;;;;;;5088224;28;20119;-46
2022/06/23 03:32:13;;;;;;;13.30;10.93;;;24.90;10.20;;;;;;5143391;27;20035;-46
2022/06/23 03:35:03;;;;;;;15.00;11.98;;;24.90;10.60;;;;;;5155081;27;20031;-48
2022/06/23 03:37:54;;;;;;;14.30;11.93;;;24.90;10.30;;;;;;5153167;27;20571;-46
2022/06/23 03:43:33;;;;;;;14.68;11.90;;;24.80;10.30;;;;;;5142492;27;20077;-46
2022/06/23 03:46:04;;;;;;;15.88;12.93;;;25.00;9.90;;;;;;5142342;27;20027;-45
2022/06/23 03:49:00;;;;;;;14.55;12.02;;;24.90;9.80;;;;;;5153052;27;20026;-54
2022/06/23 03:51:31;;;;;;;13.55;12.20;;;25.10;9.70;;;;;;5143314;27;20121;-53
2022/06/23 03:54:10;;;;;;;13.32;11.93;;;24.80;9.40;;;;;;5154325;27;20034;-53
2022/06/23 03:56:45;;;;;;;15.73;12.15;;;24.90;9.40;;;;;;5153735;27;20065;-50
2022/06/23 03:59:13;;;;;;;14.70;11.20;;;24.80;9.70;;;;;;5152993;27;20031;-52
2022/06/23 04:01:51;;;;;;;13.68;11.30;;;25.00;9.50;;;;;;5153431;27;20038;-54
2022/06/23 04:04:24;;;;;;;14.00;11.77;;;24.80;9.90;;;;;;5153324;27;20503;-54
2022/06/23 04:06:51;;;;;;;15.50;11.20;;;24.70;10.20;;;;;;5148964;27;20023;-50
2022/06/23 04:09:32;;;;;;;16.05;12.85;;;24.80;9.80;;;;;;5152590;27;20114;-49
2022/06/23 04:12:25;;;;;;;15.35;12.13;;;24.80;10.40;;;;;;5153166;27;20030;-53
2022/06/23 04:15:05;;;;;;;15.57;12.63;;;24.80;10.10;;;;;;5141649;27;20540;-46
2022/06/23 04:17:52;;;;;;;16.58;12.38;;;24.90;10.30;;;;;;5148603;27;20101;-53
2022/06/23 04:20:39;;;;;;;12.70;11.35;;;24.80;10.10;;;;;;5150583;27;20402;-50
2022/06/23 04:23:13;;;;;;;15.00;12.05;;;25.00;10.60;;;;;;5146574;27;20038;-54
2022/06/23 04:26:17;;;;;;;17.85;12.88;;;25.00;9.80;;;;;;5154441;27;20025;-49
2022/06/23 04:28:44;;;;;;;14.57;12.43;;;24.90;9.70;;;;;;5110096;28;20559;-50
2022/06/23 04:31:16;;;;;;;14.45;12.00;;;25.00;9.50;;;;;;5109715;28;20028;-47
2022/06/23 04:33:43;;;;;;;16.70;13.02;;;25.00;9.70;;;;;;5129770;27;20484;-46
2022/06/23 04:36:43;;;;;;;15.93;11.70;;;25.00;9.60;;;;;;5151667;27;20031;-47
2022/06/23 04:39:37;;;;;;;16.17;11.80;;;24.80;10.70;;;;;;5099311;27;20053;-47
2022/06/23 04:42:23;;;;;;;16.23;12.02;;;25.00;10.60;;;;;;5152418;27;20026;-45
2022/06/23 04:44:52;;;;;;;16.42;12.18;;;25.00;10.10;;;;;;5152632;27;20082;-46
2022/06/23 04:47:29;;;;;;;17.92;13.10;;;24.90;9.70;;;;;;5152839;27;20388;-46
2022/06/23 04:50:01;;;;;;;14.35;12.50;;;24.90;9.60;;;;;;5149969;27;20153;-46
2022/06/23 04:52:51;;;;;;;18.45;13.77;;;25.00;9.40;;;;;;5151198;27;20023;-48
2022/06/23 04:55:22;;;;;;;17.38;13.88;;;25.00;9.80;;;;;;5152905;27;20026;-46
2022/06/23 04:58:01;;;;;;;13.90;12.40;;;25.00;10.00;;;;;;5152060;27;20068;-46
2022/06/23 05:00:50;;;;;;;16.38;13.73;;;25.00;10.20;;;;;;5150585;27;20026;-46
2022/06/23 05:03:16;;;;;;;17.30;13.25;;;24.90;10.80;;;;;;5143766;27;20461;-48
2022/06/23 05:05:42;;;;;;;16.67;13.63;;;25.00;10.40;;;;;;5147348;27;20023;-47
2022/06/23 05:08:25;;;;;;;15.52;13.85;;;25.10;10.50;;;;;;5150099;27;20023;-46
2022/06/23 05:10:59;;;;;;;16.60;13.68;;;25.00;11.00;;;;;;5151260;27;20051;-48
2022/06/23 05:13:29;;;;;;;20.25;15.65;;;25.10;10.20;;;;;;5146817;27;20027;-46
2022/06/23 05:16:06;;;;;;;18.90;14.55;;;25.20;10.20;;;;;;5151834;27;20348;-50
2022/06/23 05:18:39;;;;;;;20.50;14.40;;;25.20;10.30;;;;;;5152728;27;20409;-47
2022/06/23 05:21:29;;;;;;;16.08;14.40;;;25.10;10.00;;;;;;5151713;27;20019;-48
2022/06/23 05:23:59;;;;;;;17.40;14.82;;;25.20;10.20;;;;;;5145818;27;20185;-46
2022/06/23 05:26:27;;;;;;;18.83;15.00;;;25.40;10.10;;;;;;5151811;27;20037;-48
2022/06/23 05:28:58;;;;;;;17.25;14.82;;;25.20;10.30;;;;;;5153974;27;20027;-47
2022/06/23 05:31:37;;;;;;;20.10;15.68;;;25.20;10.20;;;;;;5138115;27;20548;-48
2022/06/23 05:34:28;;;;;;;19.80;15.07;;;25.30;10.30;;;;;;5144453;27;20079;-46
2022/06/23 05:37:15;;;;;;;20.25;15.95;;;25.20;10.00;;;;;;5145406;27;20117;-52
2022/06/23 05:39:51;;;;;;;15.90;14.20;;;25.20;9.90;;;;;;5150298;27;20465;-51
2022/06/23 05:42:25;;;;;;;18.50;14.45;;;25.30;10.20;;;;;;5145490;27;20027;-52
2022/06/23 05:44:57;;;;;;;17.77;14.27;;;25.30;9.40;;;;;;5145605;27;20041;-48
2022/06/23 05:47:26;;;;;;;16.80;15.07;;;25.40;9.60;;;;;;5149357;27;20034;-50
2022/06/23 05:49:59;;;;;;;19.02;13.77;;;25.30;9.50;;;;;;5151227;27;20023;-46
2022/06/23 05:52:24;;;;;;;16.40;14.65;;;25.40;8.50;;;;;;5145871;27;20021;-46
2022/06/23 05:55:04;;;;;;;15.40;12.82;;;25.50;8.80;;;;;;5150057;27;20105;-51
2022/06/23 05:57:44;;;;;;;16.77;15.13;;;25.50;8.80;;;;;;5150319;27;20058;-47
2022/06/23 06:00:14;;;;;;;20.75;15.40;;;25.40;8.80;;;;;;5137018;27;20019;-47
2022/06/23 06:02:45;;;;;;;18.85;15.05;;;25.30;8.70;;;;;;5149592;27;20050;-46
2022/06/23 06:05:31;;;;;;;17.05;15.15;;;25.50;9.20;;;;;;5150971;27;20035;-46
2022/06/23 06:07:59;;;;;;;20.63;16.30;;;25.30;8.40;;;;;;5148833;27;20129;-47
2022/06/23 06:10:29;;;;;;;17.70;15.93;;;25.40;8.50;;;;;;5139330;27;20052;-50
2022/06/23 06:12:56;;;;;;;19.48;16.75;;;25.40;8.60;;;;;;5150164;27;20374;-44
2022/06/23 06:15:38;;;;;;;19.17;16.00;;;25.30;8.50;;;;;;5151032;27;20030;-44
2022/06/23 06:18:09;;;;;;;17.38;15.38;;;25.40;8.30;;;;;;5143640;27;20031;-49
2022/06/23 06:20:36;;;;;;;19.50;16.27;;;25.50;8.50;;;;;;5150711;27;20627;-49
2022/06/23 06:23:20;;;;;;;19.27;17.13;;;25.50;8.00;;;;;;5149243;27;20542;-46
2022/06/23 06:25:49;;;;;;;17.55;15.75;;;25.60;7.70;;;;;;5145624;27;20045;-52
2022/06/23 06:28:16;;;;;;;18.25;15.18;;;25.60;7.40;;;;;;5147376;27;20026;-45
2022/06/23 06:30:55;;;;;;;17.67;15.90;;;25.90;7.20;;;;;;5143197;27;20066;-46
2022/06/23 06:33:37;;;;;;;18.00;14.80;;;26.00;6.10;;;;;;5146123;27;20027;-47
2022/06/23 06:36:20;;;;;;;15.93;14.25;;;26.00;5.40;;;;;;5144700;27;20055;-49
2022/06/23 06:38:46;;;;;;;23.13;16.95;;;26.10;6.10;;;;;;5150209;27;20038;-47
2022/06/23 06:41:12;;;;;;;18.80;16.40;;;26.10;5.90;;;;;;5137563;27;20083;-46
2022/06/23 06:43:37;;;;;;;19.42;16.27;;;26.10;5.10;;;;;;5136033;27;20031;-45
2022/06/23 06:46:03;;;;;;;15.85;14.43;;;25.90;5.80;;;;;;5151108;27;20027;-48
2022/06/23 06:48:36;;;;;;;20.55;15.50;;;26.00;5.10;;;;;;5150493;27;20039;-45
2022/06/23 06:51:10;;;;;;;23.58;17.65;;;26.20;4.00;;;;;;5150254;27;20027;-45
2022/06/23 06:53:45;;;;;;;22.77;16.63;;;26.00;4.30;;;;;;5147372;27;20068;-45
2022/06/23 06:56:35;;;;;;;19.02;17.13;;;26.20;3.50;;;;;;5152319;27;20369;-45
2022/06/23 06:59:20;;;;;;;21.50;18.30;;;26.20;3.00;;;;;;5151687;27;20484;-45
2022/06/23 07:01:56;;;;;;;19.40;16.27;;;26.20;3.50;;;;;;5146214;27;20377;-45
2022/06/23 07:04:27;;;;;;;19.88;17.27;;;26.20;3.20;;;;;;5151104;27;20041;-45
2022/06/23 07:07:05;;;;;;;20.02;17.77;;;26.30;3.10;;;;;;5155472;27;20018;-45
2022/06/23 07:09:57;;;;;;;18.60;16.52;;;26.30;3.20;;;;;;5156455;27;20135;-44
2022/06/23 07:12:31;;;;;;;20.77;16.80;;;26.30;2.60;;;;;;5145061;27;20027;-47
2022/06/23 07:15:38;;;;;;;19.27;17.25;;;26.30;2.50;;;;;;5154500;27;20014;-48
2022/06/23 07:18:38;;;;;;;16.70;14.90;;;26.20;2.20;;;;;;5142134;27;20019;-48
2022/06/23 07:21:21;;;;;;;17.13;15.50;;;26.30;2.60;;;;;;5155890;27;20083;-47
2022/06/23 07:23:52;;;;;;;17.88;15.85;;;26.40;2.00;;;;;;5149654;27;20476;-47
2022/06/23 07:26:24;;;;;;;20.55;16.17;;;26.20;1.60;;;;;;5148382;27;20488;-47
2022/06/23 07:28:58;;;;;;;16.77;14.00;;;26.10;1.10;;;;;;5140957;27;20027;-45
2022/06/23 07:31:35;;;;;;;16.75;15.07;;;26.30;1.80;;;;;;5145006;27;20029;-47
2022/06/23 07:34:06;;;;;;;16.42;14.75;;;26.20;1.00;;;;;;5147109;27;20034;-46
2022/06/23 07:36:35;;;;;;;18.75;16.83;;;26.40;1.00;;;;;;5155026;27;20019;-49
2022/06/23 07:39:12;;;;;;;19.08;15.98;;;26.40;1.00;;;;;;5144419;27;20101;-45
2022/06/23 07:42:27;;;;;;;19.50;15.30;;;26.30;1.00;;;;;;5151134;27;20375;-48
2022/06/23 07:44:58;;;;;;;19.92;15.43;;;26.50;1.00;;;;;;5089280;28;20236;-50
2022/06/23 07:47:24;;;;;;;17.65;15.68;;;26.50;1.00;;;;;;5073998;28;20479;-48
2022/06/23 07:49:50;;;;;;;18.33;14.40;;;26.80;1.00;;;;;;5112153;27;20118;-53
2022/06/23 07:52:18;;;;;;;15.85;13.68;;;26.60;1.00;;;;;;5152201;27;20019;-51
2022/06/23 07:54:45;;;;;;;20.80;14.30;;;26.60;1.00;;;;;;5141809;27;20436;-50
2022/06/23 07:57:12;;;;;;;18.83;15.88;;;26.60;1.00;;;;;;5152300;27;20019;-47
2022/06/23 08:00:07;;;;;;;17.90;14.63;;;26.50;1.00;;;;;;5153369;27;20011;-53
2022/06/23 08:02:49;;;;;;;18.40;12.18;;;26.60;1.00;;;;;;5142807;27;20034;-52
2022/06/23 08:05:17;;;;;;;15.88;12.60;;;26.90;1.00;;;;;;5142757;27;20114;-54
2022/06/23 08:07:44;;;;;;;16.00;12.98;;;27.00;1.00;;;;;;5153794;27;20011;-60
2022/06/23 08:10:16;;;;;;;15.20;11.35;;;27.00;1.00;;;;;;5154897;27;20066;-54
2022/06/23 08:12:58;;;;;;;13.68;11.30;;;27.00;1.00;;;;;;5153133;27;20566;-50
2022/06/23 08:18:26;;;;;;;21.05;13.32;;;27.10;1.00;;;;;;5153516;27;20057;-46
2022/06/23 08:20:59;;;;;;;16.77;11.23;;;27.30;1.00;;;;;;5154514;27;20030;-51
2022/06/23 08:23:29;;;;;;;17.17;11.77;;;27.20;1.00;;;;;;5153115;27;20510;-51
2022/06/23 08:25:55;;;;;;;18.17;13.45;;;27.20;1.00;;;;;;5152173;27;20324;-57
2022/06/23 08:28:21;;;;;;;16.33;13.30;;;27.30;1.00;;;;;;5153720;27;20030;-54
2022/06/23 08:30:48;;;;;;;12.68;11.13;;;27.40;1.00;;;;;;5154429;27;20029;-50
2022/06/23 08:33:14;;;;;;;16.38;10.52;;;27.50;1.00;;;;;;5137789;27;20031;-52
2022/06/23 08:35:47;;;;;;;15.20;11.60;;;27.50;1.00;;;;;;5143022;27;20022;-55
2022/06/23 08:38:24;;;;;;;19.63;11.77;;;27.50;1.00;;;;;;5151979;27;20022;-53
2022/06/23 08:41:14;;;;;;;18.23;11.48;;;27.60;1.00;;;;;;5149200;27;20054;-57
2022/06/23 08:44:03;;;;;;;18.70;11.13;;;27.40;1.00;;;;;;5151035;27;20117;-52
2022/06/23 08:46:33;;;;;;;17.42;11.50;;;27.50;1.00;;;;;;5143715;27;20038;-54
2022/06/23 08:49:37;;;;;;;17.33;11.88;;;27.60;1.00;;;;;;5145981;27;20465;-54
2022/06/23 08:52:31;;;;;;;19.95;11.65;;;27.60;1.00;;;;;;5134993;27;20046;-55
2022/06/23 08:55:07;;;;;;;16.30;12.35;;;27.80;1.00;;;;;;5139922;27;20069;-49
2022/06/23 08:57:37;;;;;;;18.02;11.38;;;27.70;1.00;;;;;;5141926;27;20083;-50
2022/06/23 09:00:09;;;;;;;18.05;11.32;;;27.90;1.00;;;;;;5145917;27;20058;-49
2022/06/23 09:03:07;;;;;;;22.08;11.95;;;27.80;1.00;;;;;;5148717;27;20023;-51
2022/06/23 09:05:59;;;;;;;23.52;11.00;;;27.80;1.00;;;;;;5149601;27;20424;-52
2022/06/23 09:08:29;;;;;;;20.13;10.70;;;27.80;1.00;;;;;;5132522;27;20070;-53
2022/06/23 09:11:01;;;;;;;16.88;10.00;;;27.90;1.00;;;;;;5143604;27;20111;-51
2022/06/23 09:13:45;;;;;;;17.73;10.60;;;27.90;1.00;;;;;;5149760;27;20034;-53
2022/06/23 09:16:43;;;;;;;22.33;10.68;;;28.00;1.00;;;;;;5141998;27;20038;-49
2022/06/23 09:19:35;;;;;;;23.67;10.45;;;28.10;1.00;;;;;;5111928;27;20027;-54
2022/06/23 09:22:03;;;;;;;20.05;9.50;;;28.10;1.00;;;;;;5137651;27;20027;-50
2022/06/23 09:24:39;;;;;;;17.50;9.38;;;28.10;1.00;;;;;;5138312;27;20068;-52
2022/06/23 09:27:14;;;;;;;18.15;8.95;;;27.90;1.00;;;;;;5146505;27;20027;-55
2022/06/23 09:30:04;;;;;;;19.70;9.05;;;28.00;1.00;;;;;;5140849;27;20037;-56
2022/06/23 09:32:50;;;;;;;23.63;9.68;;;27.90;1.00;;;;;;5142128;27;20576;-56
2022/06/23 09:35:53;;;;;;;16.55;8.90;;;27.90;1.00;;;;;;5145144;27;20018;-54
2022/06/23 09:38:48;;;;;;;23.88;10.20;;;28.00;1.00;;;;;;5137792;27;20101;-52
2022/06/23 09:41:41;;;;;;;23.85;9.52;;;28.10;1.00;;;;;;5133807;27;20029;-54
2022/06/23 09:44:18;;;;;;;22.83;9.43;;;28.30;1.00;;;;;;5149404;27;20041;-55
2022/06/23 09:46:54;;;;;;;20.42;8.95;;;28.40;1.00;;;;;;5149089;27;20023;-55
2022/06/23 09:49:40;;;;;;;19.25;8.57;;;28.50;1.00;;;;;;5142575;27;20019;-55
2022/06/23 09:52:31;;;;;;;22.20;9.55;;;28.70;1.00;;;;;;5139511;27;20115;-51
2022/06/23 09:55:31;;;;;;;27.60;10.68;;;28.90;1.00;;;;;;5148594;27;20025;-50
2022/06/23 09:58:05;;;;;;;18.95;10.10;;;28.90;1.00;;;;;;5146705;27;20176;-50
2022/06/23 10:01:04;;;;;;;19.80;9.90;;;29.10;1.00;;;;;;5143729;27;20026;-54
2022/06/23 10:04:18;;;;;;;26.58;9.55;;;29.00;1.00;;;;;;5138628;27;20074;-54
2022/06/23 10:06:52;;;;;;;19.42;9.80;;;29.20;1.00;;;;;;5126079;27;20043;-51
2022/06/23 10:09:32;;;;;;;18.83;9.52;;;29.10;1.00;;;;;;5152637;27;20039;-56
2022/06/23 10:12:35;;;;;;;20.52;11.38;;;29.10;1.00;;;;;;5144442;27;20044;-55
2022/06/23 10:15:25;;;;;;;19.88;9.90;;;29.10;1.00;;;;;;5146409;27;20023;-56
2022/06/23 10:18:04;;;;;;;22.80;11.38;;;29.20;1.00;;;;;;5143541;27;20114;-56
2022/06/23 10:20:49;;;;;;;16.60;9.55;;;28.90;1.00;;;;;;5152296;27;20356;-57
2022/06/23 10:23:23;;;;;;;22.90;8.65;;;29.00;1.00;;;;;;5152708;27;20035;-55
2022/06/23 10:26:07;;;;;;;18.38;9.43;;;29.20;1.00;;;;;;5143352;27;20031;-54
2022/06/23 10:29:10;;;;;;;17.30;9.55;;;29.30;1.00;;;;;;5143146;27;20037;-57
2022/06/23 10:31:57;;;;;;;23.85;11.43;;;29.40;1.00;;;;;;5107240;27;20432;-57
2022/06/23 10:34:41;;;;;;;19.75;9.80;;;29.40;1.00;;;;;;5149142;27;20027;-57
2022/06/23 10:37:25;;;;;;;;;;;29.50;1.00;;;;;;5140694;27;20024;-57
2022/06/23 10:40:07;;;;;;;19.40;10.38;;;29.40;1.00;;;;;;5139595;27;19907;-56
2022/06/23 10:42:47;;;;;;;16.88;10.18;;;29.60;1.00;;;;;;5155636;27;20108;-58
2022/06/23 10:45:34;;;;;;;16.63;9.57;;;29.60;1.00;;;;;;5155683;27;20030;-58
2022/06/23 10:48:08;;;;;;;21.35;9.55;;;29.60;1.00;;;;;;5142678;27;20035;-53
2022/06/23 10:51:03;;;;;;;21.17;10.27;;;29.80;1.00;;;;;;5155715;27;20472;-54
2022/06/23 10:53:34;;;;;;;19.27;10.98;;;29.80;1.00;;;;;;5121643;27;20051;-54
2022/06/23 10:56:18;;;;;;;19.80;10.20;;;29.70;1.00;;;;;;5144176;27;20030;-54
2022/06/23 10:58:47;;;;;;;;;;;29.90;1.00;;;;;;5152791;27;20490;-55
2022/06/23 11:01:34;;;;;;;18.67;9.95;;;29.90;1.00;;;;;;5156317;27;20376;-56
2022/06/23 11:04:09;;;;;;;20.25;9.77;;;30.20;1.00;;;;;;5150261;27;20043;-54
2022/06/23 11:06:52;;;;;;;20.40;9.25;;;30.30;1.00;;;;;;5142510;27;20480;-51
2022/06/23 11:09:29;;;;;;;19.80;8.73;;;30.40;1.00;;;;;;5152186;27;20038;-52
2022/06/23 11:12:36;;;;;;;22.30;10.32;;;30.30;1.00;;;;;;5140436;27;20031;-54
2022/06/23 11:15:28;;;;;;;20.13;9.75;;;30.20;1.00;;;;;;5147799;27;20031;-57
2022/06/23 11:18:04;;;;;;;22.42;10.95;;;30.00;1.00;;;;;;5135862;27;20144;-58
2022/06/23 11:20:55;;;;;;;22.73;10.90;;;29.90;1.00;;;;;;5144237;27;20018;-59
2022/06/23 11:24:01;;;;;;;18.58;10.95;;;30.00;1.00;;;;;;5151255;27;20034;-55
2022/06/23 11:26:58;;;;;;;19.70;10.63;;;30.00;1.00;;;;;;5140195;27;20019;-57
2022/06/23 11:29:54;;;;;;;17.83;10.50;;;30.00;1.00;;;;;;5145331;27;20432;-59
2022/06/23 11:32:55;;;;;;;26.23;11.38;;;30.10;1.00;;;;;;5152656;27;20062;-54
2022/06/23 11:35:55;;;;;;;24.52;11.63;;;29.80;1.00;;;;;;5120232;27;20064;-56
2022/06/23 11:38:48;;;;;;;20.10;10.77;;;29.70;1.00;;;;;;5102389;27;20040;-54
2022/06/23 11:41:38;;;;;;;26.80;10.50;;;29.90;1.00;;;;;;5141114;27;20027;-56
2022/06/23 11:44:21;;;;;;;26.83;12.43;;;30.10;1.00;;;;;;5154675;27;20034;-57
2022/06/23 11:47:13;;;;;;;16.70;9.85;;;30.20;1.00;;;;;;5152310;27;20592;-55
2022/06/23 11:50:07;;;;;;;21.80;10.30;;;30.00;1.00;;;;;;5142942;27;20113;-55
2022/06/23 11:52:36;;;;;;;21.60;10.45;;;29.90;1.00;;;;;;5152405;27;20026;-54
2022/06/23 11:55:31;;;;;;;23.40;10.48;;;29.90;1.00;;;;;;5140566;27;20067;-54
2022/06/23 11:58:07;;;;;;;24.77;11.18;;;29.70;1.00;;;;;;5152680;27;20046;-55
2022/06/23 12:00:53;;;;;;;22.48;11.38;;;29.70;1.00;;;;;;5141452;27;20027;-54
2022/06/23 12:04:03;;;;;;;21.27;11.75;;;29.60;1.00;;;;;;5146618;27;20037;-54
2022/06/23 12:06:49;;;;;;;22.38;10.90;;;28.20;99.90;;;;;;5094978;27;20114;-54
2022/06/23 12:09:48;;;;;;;20.20;10.48;;;27.00;99.90;;;;;;5154195;27;20388;-54
2022/06/23 12:12:13;;;;;;;24.40;12.13;;;27.40;48.00;;;;;;5139369;27;20099;-52
2022/06/23 12:14:40;;;;;;;19.63;11.98;;;28.40;1.00;;;;;;5156626;27;20027;-53
2022/06/23 12:17:17;;;;;;;20.15;11.15;;;29.00;1.00;;;;;;5151275;27;20506;-55
2022/06/23 12:20:02;;;;;;;18.10;10.88;;;29.40;1.00;;;;;;5149893;27;20030;-52
2022/06/23 12:22:31;;;;;;;23.08;11.70;;;29.30;1.00;;;;;;5141740;27;20026;-56
2022/06/23 12:25:20;;;;;;;29.55;11.90;;;29.40;1.00;;;;;;5152507;27;20126;-52
2022/06/23 12:28:07;;;;;;;22.20;11.57;;;29.50;1.00;;;;;;5142044;27;20361;-57
2022/06/23 12:30:49;;;;;;;18.15;11.45;;;29.50;1.00;;;;;;5143604;27;20023;-50
2022/06/23 12:33:27;;;;;;;25.20;11.18;;;29.40;1.00;;;;;;5144866;27;20037;-52
2022/06/23 12:36:22;;;;;;;20.50;11.65;;;29.50;1.00;;;;;;5143162;27;20031;-52
2022/06/23 12:38:59;;;;;;;21.92;11.75;;;29.60;1.00;;;;;;5140578;27;20031;-54
2022/06/23 12:41:33;;;;;;;18.77;11.07;;;29.90;1.00;;;;;;5144435;27;20023;-55
2022/06/23 12:44:29;;;;;;;22.65;11.07;;;30.10;1.00;;;;;;5152576;27;20038;-51
2022/06/23 12:47:15;;;;;;;21.85;12.07;;;29.90;1.00;;;;;;5147607;27;20027;-50
2022/06/23 12:49:59;;;;;;;27.08;12.02;;;30.30;1.00;;;;;;5147260;27;20101;-53
2022/06/23 12:53:04;;;;;;;20.30;11.48;;;31.00;1.00;;;;;;5147752;27;21815;-53
2022/06/23 12:56:01;;;;;;;20.10;11.35;;;32.00;1.00;;;;;;5135173;27;20027;-50
2022/06/23 12:58:37;;;;;;;23.33;11.27;;;32.00;1.00;;;;;;5144253;27;20261;-50
2022/06/23 13:01:29;;;;;;;20.10;11.30;;;31.40;1.00;;;;;;5145380;27;20439;-52
2022/06/23 13:04:21;;;;;;;26.10;11.93;;;31.00;1.00;;;;;;5145427;27;20091;-52
2022/06/23 13:07:02;;;;;;;23.33;12.38;;;30.80;1.00;;;;;;5146330;27;20035;-52
2022/06/23 13:09:48;;;;;;;23.30;12.75;;;30.50;1.00;;;;;;5144503;27;20031;-52
2022/06/23 13:12:21;;;;;;;18.67;11.30;;;30.60;1.00;;;;;;5141231;27;20030;-54
2022/06/23 13:14:57;;;;;;;23.33;12.48;;;30.40;1.00;;;;;;5142924;27;20035;-50
2022/06/23 13:17:29;;;;;;;23.50;11.38;;;30.90;1.00;;;;;;5145206;27;20030;-47
2022/06/23 13:20:16;;;;;;;24.65;11.07;;;31.10;1.00;;;;;;5147978;27;20480;-53
2022/06/23 13:22:50;;;;;;;18.70;11.43;;;31.40;1.00;;;;;;5139881;27;20045;-53
2022/06/23 13:25:22;;;;;;;20.00;11.07;;;32.20;1.00;;;;;;5140358;27;20038;-55
2022/06/23 13:27:53;;;;;;;22.48;11.93;;;32.10;1.00;;;;;;5146426;27;20027;-51
2022/06/23 13:30:22;;;;;;;18.35;11.40;;;32.00;1.00;;;;;;5140346;27;20471;-51
2022/06/23 13:33:03;;;;;;;25.75;11.60;;;32.00;1.00;;;;;;5145110;27;20023;-51
2022/06/23 13:35:38;;;;;;;21.17;11.43;;;32.40;1.00;;;;;;5138102;27;20033;-50
2022/06/23 13:38:22;;;;;;;18.13;10.95;;;32.50;1.00;;;;;;5143719;27;20023;-53
2022/06/23 13:40:58;;;;;;;23.83;11.23;;;32.20;1.00;;;;;;5140582;27;20019;-51
2022/06/23 13:43:27;;;;;;;20.05;10.50;;;32.50;1.00;;;;;;5134868;27;20039;-50
2022/06/23 13:46:01;;;;;;;19.00;10.55;;;32.70;1.00;;;;;;5150441;27;20048;-54
2022/06/23 13:48:39;;;;;;;21.80;10.82;;;33.20;1.00;;;;;;5146078;27;20384;-50